createdAt,value
2018-06-10T00:00:44.599Z,23.01
2018-06-10T00:01:44.608Z,23.04
2018-06-10T00:02:44.622Z,22.77
2018-06-10T00:03:44.618Z,22.69
2018-06-10T00:04:44.622Z,22.82
2018-06-10T00:05:44.629Z,22.60
2018-06-10T00:06:44.627Z,22.96
2018-06-10T00:07:44.638Z,22.90
2018-06-10T00:08:44.644Z,22.92
2018-06-10T00:09:44.658Z,22.92
2018-06-10T00:10:44.654Z,23.07
2018-06-10T00:11:44.659Z,22.93
2018-06-10T00:12:44.659Z,22.72
2018-06-10T00:13:44.666Z,22.67
2018-06-10T00:14:44.671Z,22.84
2018-06-10T00:15:44.676Z,22.82
2018-06-10T00:16:44.675Z,22.68
2018-06-10T00:17:44.683Z,22.71
2018-06-10T00:18:44.694Z,22.74
2018-06-10T00:19:44.695Z,22.72
2018-06-10T00:20:44.700Z,22.67
2018-06-10T00:21:44.704Z,22.69
2018-06-10T00:22:44.707Z,22.80
2018-06-10T00:23:44.710Z,22.80
2018-06-10T00:24:44.716Z,22.74
2018-06-10T00:25:44.728Z,22.67
2018-06-10T00:26:44.725Z,22.54
2018-06-10T00:27:44.735Z,22.47
2018-06-10T00:28:44.737Z,22.62
2018-06-10T00:29:44.741Z,22.60
2018-06-10T00:30:44.747Z,22.74
2018-06-10T00:31:44.747Z,22.54
2018-06-10T00:32:44.756Z,22.60
2018-06-10T00:33:44.760Z,22.57
2018-06-10T00:34:44.761Z,22.54
2018-06-10T00:35:44.766Z,22.90
2018-06-10T00:36:44.774Z,23.02
2018-06-10T00:37:44.782Z,22.93
2018-06-10T00:38:44.785Z,22.74
2018-06-10T00:39:44.785Z,22.92
2018-06-10T00:40:44.792Z,22.94
2018-06-10T00:41:44.806Z,22.71
2018-06-10T00:42:44.800Z,22.82
2018-06-10T00:43:44.808Z,22.65
2018-06-10T00:44:44.813Z,22.87
2018-06-10T00:45:44.813Z,22.43
2018-06-10T00:46:44.822Z,22.71
2018-06-10T00:47:44.829Z,22.67
2018-06-10T00:48:44.829Z,22.78
2018-06-10T00:49:44.838Z,22.62
2018-06-10T00:50:44.837Z,22.71
2018-06-10T00:51:44.844Z,22.57
2018-06-10T00:52:44.845Z,22.47
2018-06-10T00:53:44.852Z,22.78
2018-06-10T00:54:44.855Z,22.57
2018-06-10T00:55:44.865Z,22.80
2018-06-10T00:56:44.869Z,22.68
2018-06-10T00:57:44.877Z,22.71
2018-06-10T00:58:44.878Z,22.56
2018-06-10T00:59:44.887Z,22.50
2018-06-10T01:00:44.886Z,22.56
2018-06-10T01:01:44.892Z,22.43
2018-06-10T01:02:44.895Z,22.57
2018-06-10T01:03:44.894Z,22.80
2018-06-10T01:04:44.901Z,22.80
2018-06-10T01:05:44.911Z,22.77
2018-06-10T01:06:44.913Z,22.62
2018-06-10T01:07:44.921Z,22.83
2018-06-10T01:08:44.927Z,22.82
2018-06-10T01:09:44.922Z,22.72
2018-06-10T01:10:44.930Z,22.59
2018-06-10T01:11:44.948Z,22.69
2018-06-10T01:12:44.943Z,22.41
2018-06-10T01:13:44.947Z,22.46
2018-06-10T01:14:44.951Z,22.53
2018-06-10T01:15:44.953Z,22.49
2018-06-10T01:16:44.967Z,22.41
2018-06-10T01:17:44.970Z,22.49
2018-06-10T01:18:44.966Z,22.41
2018-06-10T01:19:44.972Z,22.34
2018-06-10T01:20:44.977Z,22.27
2018-06-10T01:21:44.977Z,22.16
2018-06-10T01:22:44.988Z,22.14
2018-06-10T01:23:44.992Z,22.49
2018-06-10T01:24:44.994Z,22.32
2018-06-10T01:25:45.003Z,22.12
2018-06-10T01:26:45.009Z,22.20
2018-06-10T01:27:45.013Z,22.23
2018-06-10T01:28:45.017Z,22.25
2018-06-10T01:29:45.022Z,22.14
2018-06-10T01:30:45.025Z,22.14
2018-06-10T01:31:45.034Z,22.31
2018-06-10T01:32:45.029Z,22.44
2018-06-10T01:33:45.036Z,22.57
2018-06-10T01:34:45.043Z,22.57
2018-06-10T01:35:45.045Z,22.44
2018-06-10T01:36:45.055Z,22.23
2018-06-10T01:37:45.056Z,22.29
2018-06-10T01:38:45.071Z,22.06
2018-06-10T01:39:45.064Z,22.23
2018-06-10T01:40:45.069Z,22.13
2018-06-10T01:41:45.071Z,22.01
2018-06-10T01:42:45.079Z,22.09
2018-06-10T01:43:45.082Z,22.17
2018-06-10T01:44:45.090Z,22.19
2018-06-10T01:45:45.091Z,22.27
2018-06-10T01:46:45.098Z,22.28
2018-06-10T01:47:45.105Z,22.19
2018-06-10T01:48:45.113Z,22.22
2018-06-10T01:49:45.110Z,22.17
2018-06-10T01:50:45.113Z,22.17
2018-06-10T01:51:45.120Z,22.28
2018-06-10T01:52:45.121Z,22.12
2018-06-10T01:53:45.128Z,22.29
2018-06-10T01:54:45.133Z,22.47
2018-06-10T01:55:45.134Z,22.49
2018-06-10T01:56:45.148Z,22.29
2018-06-10T01:57:45.159Z,22.43
2018-06-10T01:58:45.155Z,22.44
2018-06-10T01:59:45.153Z,22.41
2018-06-10T02:00:45.157Z,22.38
2018-06-10T02:01:45.165Z,22.17
2018-06-10T02:02:45.174Z,22.32
2018-06-10T02:03:45.171Z,22.22
2018-06-10T02:04:45.182Z,22.29
2018-06-10T02:05:45.181Z,22.10
2018-06-10T02:06:45.185Z,21.94
2018-06-10T02:07:45.192Z,21.74
2018-06-10T02:08:45.193Z,22.02
2018-06-10T02:09:45.201Z,21.95
2018-06-10T02:10:45.209Z,21.88
2018-06-10T02:11:45.214Z,22.09
2018-06-10T02:12:45.215Z,21.83
2018-06-10T02:13:45.219Z,21.76
2018-06-10T02:14:45.224Z,22.14
2018-06-10T02:15:45.228Z,21.99
2018-06-10T02:16:45.233Z,22.25
2018-06-10T02:17:45.235Z,22.23
2018-06-10T02:18:45.240Z,22.14
2018-06-10T02:19:45.246Z,22.27
2018-06-10T02:20:45.252Z,22.06
2018-06-10T02:21:45.254Z,21.98
2018-06-10T02:22:45.257Z,21.97
2018-06-10T02:23:45.264Z,22.01
2018-06-10T02:24:45.266Z,21.98
2018-06-10T02:25:45.271Z,21.78
2018-06-10T02:26:45.274Z,21.82
2018-06-10T02:27:45.282Z,21.88
2018-06-10T02:28:45.287Z,21.83
2018-06-10T02:29:45.300Z,21.59
2018-06-10T02:30:45.295Z,21.75
2018-06-10T02:31:45.299Z,21.75
2018-06-10T02:32:45.304Z,21.69
2018-06-10T02:33:45.306Z,21.74
2018-06-10T02:34:45.311Z,21.88
2018-06-10T02:35:45.316Z,21.75
2018-06-10T02:36:45.318Z,21.92
2018-06-10T02:37:47.736Z,21.71
2018-06-10T02:38:45.323Z,21.79
2018-06-10T02:39:45.333Z,21.79
2018-06-10T02:40:45.338Z,21.83
2018-06-10T02:41:45.342Z,21.79
2018-06-10T02:42:45.345Z,21.91
2018-06-10T02:43:45.352Z,21.76
2018-06-10T02:44:45.354Z,21.94
2018-06-10T02:45:45.359Z,21.78
2018-06-10T02:46:45.367Z,21.76
2018-06-10T02:47:45.371Z,21.72
2018-06-10T02:48:45.388Z,21.75
2018-06-10T02:49:45.389Z,21.71
2018-06-10T02:50:45.398Z,21.71
2018-06-10T02:51:45.391Z,21.57
2018-06-10T02:52:45.395Z,21.35
2018-06-10T02:53:45.395Z,21.36
2018-06-10T02:54:45.403Z,21.48
2018-06-10T02:55:45.404Z,21.39
2018-06-10T02:56:45.408Z,21.39
2018-06-10T02:57:45.416Z,21.56
2018-06-10T02:58:45.418Z,21.53
2018-06-10T02:59:45.424Z,21.50
2018-06-10T03:00:45.426Z,21.51
2018-06-10T03:01:45.432Z,21.66
2018-06-10T03:02:45.435Z,21.61
2018-06-10T03:03:45.441Z,21.60
2018-06-10T03:22:45.897Z,21.42
2018-06-10T03:23:45.883Z,21.35
2018-06-10T03:24:45.881Z,21.27
2018-06-10T03:25:45.880Z,21.59
2018-06-10T03:26:45.885Z,21.48
2018-06-10T03:27:45.886Z,21.53
2018-06-10T03:28:45.879Z,21.53
2018-06-10T03:29:45.885Z,21.36
2018-06-10T03:30:45.887Z,21.35
2018-06-10T03:31:45.892Z,21.36
2018-06-10T03:32:45.890Z,21.27
2018-06-10T03:33:45.898Z,21.30
2018-06-10T03:34:45.913Z,21.39
2018-06-10T03:35:45.900Z,21.27
2018-06-10T03:36:45.900Z,21.39
2018-06-10T03:37:45.920Z,21.24
2018-06-10T03:38:45.906Z,21.32
2018-06-10T03:39:45.914Z,21.44
2018-06-10T03:40:45.918Z,21.24
2018-06-10T03:41:45.919Z,21.38
2018-06-10T03:42:45.921Z,21.09
2018-06-10T03:43:45.927Z,20.86
2018-06-10T03:44:45.934Z,21.04
2018-06-10T03:45:45.937Z,21.19
2018-06-10T03:46:45.938Z,21.16
2018-06-10T03:47:45.943Z,21.75
2018-06-10T03:48:45.945Z,21.67
2018-06-10T03:49:45.952Z,21.75
2018-06-10T03:50:45.955Z,21.82
2018-06-10T03:51:45.958Z,21.59
2018-06-10T03:52:45.959Z,21.56
2018-06-10T03:53:45.966Z,21.51
2018-06-10T03:54:45.970Z,21.30
2018-06-10T03:55:45.972Z,21.60
2018-06-10T03:56:45.976Z,21.59
2018-06-10T03:57:45.979Z,21.66
2018-06-10T03:58:45.983Z,21.54
2018-06-10T03:59:45.984Z,21.61
2018-06-10T04:00:46.003Z,21.53
2018-06-10T04:01:45.995Z,21.45
2018-06-10T04:02:45.997Z,21.51
2018-06-10T04:03:46.006Z,21.42
2018-06-10T04:04:46.014Z,21.48
2018-06-10T04:05:46.014Z,21.38
2018-06-10T04:06:46.062Z,21.38
2018-06-10T04:07:46.022Z,21.45
2018-06-10T04:08:46.028Z,21.36
2018-06-10T04:09:46.031Z,21.56
2018-06-10T04:10:46.048Z,21.66
2018-06-10T04:11:46.049Z,21.59
2018-06-10T04:12:46.045Z,21.54
2018-06-10T04:13:46.053Z,21.56
2018-06-10T04:14:46.051Z,21.53
2018-06-10T04:15:46.055Z,21.53
2018-06-10T04:16:46.061Z,21.56
2018-06-10T04:17:46.065Z,21.51
2018-06-10T04:18:46.071Z,21.41
2018-06-10T04:19:46.076Z,21.36
2018-06-10T04:20:46.083Z,21.48
2018-06-10T04:21:46.084Z,21.38
2018-06-10T04:22:46.142Z,21.54
2018-06-10T04:23:46.090Z,21.53
2018-06-10T04:24:46.097Z,21.64
2018-06-10T04:25:46.100Z,21.61
2018-06-10T04:26:46.105Z,21.59
2018-06-10T04:27:46.109Z,21.59
2018-06-10T04:28:46.118Z,21.74
2018-06-10T04:29:46.123Z,21.85
2018-06-10T04:30:46.132Z,21.76
2018-06-10T04:31:46.123Z,21.75
2018-06-10T04:32:46.135Z,21.69
2018-06-10T04:33:46.139Z,21.97
2018-06-10T04:34:46.147Z,21.90
2018-06-10T04:35:46.153Z,21.76
2018-06-10T04:36:46.154Z,21.82
2018-06-10T04:37:46.154Z,21.82
2018-06-10T04:38:46.164Z,21.99
2018-06-10T04:39:46.169Z,22.13
2018-06-10T04:40:46.175Z,22.49
2018-06-10T04:41:46.173Z,22.37
2018-06-10T04:42:46.215Z,22.44
2018-06-10T04:43:46.180Z,22.82
2018-06-10T04:44:46.194Z,22.90
2018-06-10T04:45:46.197Z,22.90
2018-06-10T04:46:46.201Z,22.77
2018-06-10T04:47:46.209Z,22.83
2018-06-10T04:48:46.213Z,22.78
2018-06-10T04:49:46.216Z,22.67
2018-06-10T04:50:46.226Z,22.57
2018-06-10T04:51:46.231Z,22.64
2018-06-10T04:52:46.234Z,22.65
2018-06-10T04:53:46.243Z,22.68
2018-06-10T04:54:46.249Z,22.82
2018-06-10T04:55:46.255Z,22.93
2018-06-10T04:56:46.255Z,22.92
2018-06-10T04:57:46.262Z,23.04
2018-06-10T04:58:46.268Z,23.11
2018-06-10T04:59:46.272Z,23.20
2018-06-10T05:00:46.279Z,23.31
2018-06-10T05:01:46.286Z,23.27
2018-06-10T05:02:46.294Z,23.40
2018-06-10T05:03:46.306Z,23.57
2018-06-10T05:04:46.313Z,23.42
2018-06-10T05:05:46.308Z,23.49
2018-06-10T05:06:46.327Z,23.42
2018-06-10T05:07:46.321Z,23.60
2018-06-10T05:08:46.333Z,23.71
2018-06-10T05:09:46.344Z,23.61
2018-06-10T05:10:46.340Z,23.60
2018-06-10T05:11:46.361Z,23.76
2018-06-10T05:12:46.353Z,23.70
2018-06-10T05:13:46.375Z,23.68
2018-06-10T05:14:46.381Z,23.75
2018-06-10T05:15:46.379Z,23.68
2018-06-10T05:16:46.385Z,23.58
2018-06-10T05:17:46.391Z,23.64
2018-06-10T05:18:46.392Z,23.68
2018-06-10T05:19:46.476Z,23.71
2018-06-10T05:20:46.407Z,23.76
2018-06-10T05:21:46.419Z,23.83
2018-06-10T05:22:46.425Z,23.85
2018-06-10T05:23:46.428Z,23.89
2018-06-10T05:24:46.437Z,23.82
2018-06-10T05:25:46.442Z,24.02
2018-06-10T05:26:46.448Z,24.05
2018-06-10T05:27:46.461Z,23.90
2018-06-10T05:28:46.478Z,24.02
2018-06-10T05:29:46.468Z,24.02
2018-06-10T05:30:46.499Z,24.07
2018-06-10T05:31:46.482Z,24.00
2018-06-10T05:32:46.503Z,24.00
2018-06-10T05:33:46.504Z,24.08
2018-06-10T05:34:46.511Z,24.01
2018-06-10T05:35:46.513Z,24.02
2018-06-10T05:36:46.518Z,23.94
2018-06-10T05:37:46.523Z,23.97
2018-06-10T05:38:46.532Z,24.02
2018-06-10T05:39:46.546Z,24.13
2018-06-10T05:40:46.558Z,24.19
2018-06-10T05:41:46.550Z,24.22
2018-06-10T05:42:46.559Z,24.31
2018-06-10T05:43:46.566Z,24.26
2018-06-10T05:44:46.573Z,24.27
2018-06-10T05:45:46.583Z,24.26
2018-06-10T05:46:46.601Z,24.27
2018-06-10T05:47:46.593Z,24.14
2018-06-10T05:48:46.608Z,24.26
2018-06-10T05:49:46.611Z,24.32
2018-06-10T05:50:46.621Z,24.26
2018-06-10T05:51:46.624Z,24.20
2018-06-10T05:52:46.626Z,24.17
2018-06-10T05:53:46.636Z,24.29
2018-06-10T05:54:46.646Z,24.42
2018-06-10T05:55:46.656Z,24.24
2018-06-10T05:56:46.664Z,24.22
2018-06-10T05:57:46.671Z,24.34
2018-06-10T05:58:46.678Z,24.38
2018-06-10T05:59:46.686Z,24.57
2018-06-10T06:00:46.687Z,24.50
2018-06-10T06:01:46.693Z,24.56
2018-06-10T06:02:46.705Z,24.59
2018-06-10T06:03:46.706Z,24.60
2018-06-10T06:04:46.721Z,24.69
2018-06-10T06:05:46.721Z,24.80
2018-06-10T06:06:46.727Z,24.69
2018-06-10T06:07:46.743Z,24.68
2018-06-10T06:08:46.748Z,24.75
2018-06-10T06:09:46.755Z,24.71
2018-06-10T06:10:46.762Z,24.76
2018-06-10T06:11:46.772Z,24.82
2018-06-10T06:12:46.776Z,24.85
2018-06-10T06:13:46.785Z,24.68
2018-06-10T06:14:46.790Z,24.67
2018-06-10T06:15:46.800Z,24.56
2018-06-10T06:16:46.799Z,24.52
2018-06-10T06:17:46.809Z,24.57
2018-06-10T06:18:46.824Z,24.75
2018-06-10T06:19:46.844Z,24.67
2018-06-10T06:20:46.839Z,24.77
2018-06-10T06:21:46.842Z,24.68
2018-06-10T06:22:46.847Z,24.73
2018-06-10T06:23:46.856Z,24.68
2018-06-10T06:24:46.869Z,24.60
2018-06-10T06:25:46.880Z,24.85
2018-06-10T06:26:46.883Z,24.79
2018-06-10T06:27:46.884Z,24.76
2018-06-10T06:28:46.894Z,24.85
2018-06-10T06:29:46.900Z,24.76
2018-06-10T06:30:46.905Z,24.75
2018-06-10T06:31:46.920Z,24.87
2018-06-10T06:32:46.927Z,24.87
2018-06-10T06:33:46.928Z,24.85
2018-06-10T06:34:46.932Z,24.87
2018-06-10T06:35:46.954Z,24.83
2018-06-10T06:36:46.950Z,24.82
2018-06-10T06:37:46.958Z,24.90
2018-06-10T06:38:46.959Z,24.97
2018-06-10T06:39:46.965Z,24.98
2018-06-10T06:40:46.983Z,25.01
2018-06-10T06:41:46.988Z,24.97
2018-06-10T06:42:46.992Z,24.82
2018-06-10T06:43:47.000Z,24.83
2018-06-10T06:44:47.004Z,24.85
2018-06-10T06:45:47.016Z,24.92
2018-06-10T06:46:47.021Z,24.90
2018-06-10T06:47:47.028Z,24.82
2018-06-10T06:48:47.039Z,24.77
2018-06-10T06:49:47.044Z,24.71
2018-06-10T06:50:47.050Z,24.75
2018-06-10T06:51:47.058Z,24.69
2018-06-10T06:52:47.066Z,24.69
2018-06-10T06:53:47.068Z,24.79
2018-06-10T06:54:47.075Z,24.75
2018-06-10T06:55:47.084Z,24.79
2018-06-10T06:56:47.088Z,24.57
2018-06-10T06:57:47.101Z,24.52
2018-06-10T06:58:47.106Z,24.57
2018-06-10T06:59:47.113Z,24.60
2018-06-10T07:00:47.119Z,24.57
2018-06-10T07:01:47.129Z,24.54
2018-06-10T07:02:47.133Z,24.54
2018-06-10T07:03:47.141Z,24.57
2018-06-10T07:04:47.148Z,24.77
2018-06-10T07:05:47.152Z,24.63
2018-06-10T07:06:47.160Z,24.54
2018-06-10T07:07:47.161Z,24.39
2018-06-10T07:08:47.173Z,24.50
2018-06-10T07:09:47.179Z,24.45
2018-06-10T07:10:47.187Z,24.41
2018-06-10T07:11:47.190Z,24.49
2018-06-10T07:12:47.202Z,24.49
2018-06-10T07:13:47.204Z,24.54
2018-06-10T07:14:47.208Z,24.59
2018-06-10T07:15:47.223Z,24.47
2018-06-10T07:16:47.222Z,24.56
2018-06-10T07:17:47.235Z,24.63
2018-06-10T07:18:47.236Z,24.61
2018-06-10T07:19:47.245Z,24.56
2018-06-10T07:20:47.255Z,24.50
2018-06-10T07:21:47.264Z,24.56
2018-06-10T07:22:47.276Z,24.60
2018-06-10T07:23:47.338Z,24.60
2018-06-10T07:24:47.275Z,24.57
2018-06-10T07:25:47.284Z,24.60
2018-06-10T07:26:47.289Z,24.75
2018-06-10T07:27:47.297Z,24.75
2018-06-10T07:28:47.304Z,24.83
2018-06-10T07:29:47.313Z,24.98
2018-06-10T07:30:55.956Z,24.88
2018-06-10T07:32:40.733Z,24.87
2018-06-10T07:33:40.727Z,24.76
2018-06-10T07:34:40.780Z,24.87
2018-06-10T07:35:40.741Z,24.88
2018-06-10T07:36:40.747Z,24.91
2018-06-10T07:37:40.753Z,24.90
2018-06-10T07:38:40.767Z,24.97
2018-06-10T07:39:40.769Z,24.91
2018-06-10T07:40:40.814Z,24.82
2018-06-10T07:41:40.779Z,24.80
2018-06-10T07:42:40.786Z,24.90
2018-06-10T07:43:40.795Z,24.77
2018-06-10T07:44:40.807Z,24.87
2018-06-10T07:45:40.808Z,24.85
2018-06-10T07:46:40.812Z,24.90
2018-06-10T07:47:40.821Z,24.94
2018-06-10T07:48:40.835Z,24.90
2018-06-10T07:49:40.836Z,24.80
2018-06-10T07:50:40.838Z,24.88
2018-06-10T07:51:40.847Z,24.85
2018-06-10T07:52:40.853Z,24.87
2018-06-10T07:53:40.862Z,24.97
2018-06-10T07:54:40.867Z,24.92
2018-06-10T07:55:40.877Z,24.95
2018-06-10T07:56:40.880Z,25.07
2018-06-10T07:57:40.895Z,25.05
2018-06-10T07:58:40.913Z,25.06
2018-06-10T07:59:40.903Z,24.95
2018-06-10T08:00:40.908Z,25.02
2018-06-10T08:01:40.921Z,24.94
2018-06-10T08:02:40.926Z,24.87
2018-06-10T08:03:40.926Z,24.79
2018-06-10T08:04:40.936Z,24.85
2018-06-10T08:05:40.939Z,24.83
2018-06-10T08:06:40.952Z,24.82
2018-06-10T08:07:40.960Z,24.85
2018-06-10T08:08:40.964Z,24.79
2018-06-10T08:09:40.968Z,24.75
2018-06-10T08:10:40.978Z,24.75
2018-06-10T08:11:40.981Z,24.75
2018-06-10T08:12:41.008Z,24.83
2018-06-10T08:13:40.994Z,24.90
2018-06-10T08:14:41.001Z,24.88
2018-06-10T08:15:41.015Z,24.87
2018-06-10T08:16:41.016Z,24.88
2018-06-10T08:17:41.024Z,24.80
2018-06-10T08:18:41.041Z,24.97
2018-06-10T08:19:41.035Z,24.82
2018-06-10T08:20:41.045Z,24.92
2018-06-10T08:21:41.048Z,24.85
2018-06-10T08:22:41.055Z,24.80
2018-06-10T08:23:41.064Z,24.82
2018-06-10T08:24:41.069Z,24.80
2018-06-10T08:25:41.076Z,24.90
2018-06-10T08:26:41.083Z,25.00
2018-06-10T08:27:41.092Z,24.97
2018-06-10T08:28:41.098Z,25.06
2018-06-10T08:29:41.103Z,25.02
2018-06-10T08:30:41.111Z,25.05
2018-06-10T08:31:41.132Z,24.94
2018-06-10T08:32:41.127Z,24.87
2018-06-10T08:33:41.129Z,24.85
2018-06-10T08:34:41.146Z,24.82
2018-06-10T08:35:41.143Z,24.94
2018-06-10T08:36:41.154Z,25.05
2018-06-10T08:37:41.179Z,25.06
2018-06-10T08:38:41.171Z,24.97
2018-06-10T08:39:41.175Z,25.02
2018-06-10T08:40:41.206Z,25.10
2018-06-10T08:41:41.188Z,25.07
2018-06-10T08:42:41.196Z,25.06
2018-06-10T08:43:41.201Z,25.00
2018-06-10T08:44:41.207Z,25.05
2018-06-10T08:45:41.211Z,25.06
2018-06-10T08:46:41.219Z,25.15
2018-06-10T08:47:41.230Z,25.06
2018-06-10T08:48:41.231Z,25.12
2018-06-10T08:49:41.245Z,25.13
2018-06-10T08:50:41.248Z,25.20
2018-06-10T08:51:41.255Z,25.12
2018-06-10T08:52:41.261Z,25.22
2018-06-10T08:53:41.265Z,25.10
2018-06-10T08:54:41.275Z,25.07
2018-06-10T08:55:41.287Z,25.06
2018-06-10T08:56:41.286Z,25.13
2018-06-10T08:57:41.289Z,25.13
2018-06-10T08:58:41.299Z,25.19
2018-06-10T08:59:41.305Z,25.07
2018-06-10T09:00:41.320Z,25.06
2018-06-10T09:01:41.321Z,25.06
2018-06-10T09:02:41.351Z,25.06
2018-06-10T09:03:41.337Z,25.09
2018-06-10T09:04:41.343Z,25.13
2018-06-10T09:05:41.347Z,25.27
2018-06-10T09:06:41.354Z,25.20
2018-06-10T09:07:41.361Z,25.25
2018-06-10T09:08:41.452Z,25.20
2018-06-10T09:09:41.376Z,25.28
2018-06-10T09:10:41.380Z,25.31
2018-06-10T09:11:41.399Z,25.24
2018-06-10T09:12:41.396Z,25.24
2018-06-10T09:13:41.402Z,25.43
2018-06-10T09:14:41.420Z,25.49
2018-06-10T09:15:41.416Z,25.47
2018-06-10T09:16:41.419Z,25.52
2018-06-10T09:17:41.430Z,25.49
2018-06-10T09:18:41.433Z,25.54
2018-06-10T09:19:41.441Z,25.46
2018-06-10T09:20:41.451Z,25.47
2018-06-10T09:21:41.455Z,25.52
2018-06-10T09:22:41.462Z,25.56
2018-06-10T09:23:41.469Z,25.53
2018-06-10T09:24:41.478Z,25.59
2018-06-10T09:25:41.486Z,25.56
2018-06-10T09:26:41.493Z,25.53
2018-06-10T09:27:41.499Z,25.67
2018-06-10T09:28:41.546Z,25.71
2018-06-10T09:29:41.514Z,25.69
2018-06-10T09:30:41.519Z,25.53
2018-06-10T09:31:41.531Z,25.64
2018-06-10T09:32:41.648Z,25.64
2018-06-10T09:33:41.547Z,25.69
2018-06-10T09:34:41.547Z,25.83
2018-06-10T09:35:41.557Z,25.75
2018-06-10T09:36:41.558Z,25.72
2018-06-10T09:37:41.569Z,25.79
2018-06-10T09:38:41.644Z,25.84
2018-06-10T09:39:41.588Z,25.79
2018-06-10T09:40:41.586Z,25.74
2018-06-10T09:41:41.601Z,25.77
2018-06-10T09:42:41.603Z,25.75
2018-06-10T09:43:41.611Z,25.87
2018-06-10T09:44:41.619Z,25.71
2018-06-10T09:45:41.644Z,25.97
2018-06-10T09:46:41.631Z,26.04
2018-06-10T09:47:41.639Z,26.09
2018-06-10T09:48:41.651Z,26.22
2018-06-10T09:49:41.651Z,26.22
2018-06-10T09:50:41.658Z,26.21
2018-06-10T09:51:41.672Z,26.08
2018-06-10T09:52:41.670Z,26.12
2018-06-10T09:53:41.686Z,26.02
2018-06-10T09:54:41.706Z,26.06
2018-06-10T09:55:41.781Z,26.15
2018-06-10T09:56:41.707Z,26.20
2018-06-10T09:57:41.723Z,26.15
2018-06-10T09:58:41.722Z,26.21
2018-06-10T09:59:41.731Z,26.28
2018-06-10T10:00:41.744Z,26.24
2018-06-10T10:01:41.744Z,26.37
2018-06-10T10:02:41.764Z,26.57
2018-06-10T10:03:41.765Z,26.59
2018-06-10T10:04:41.764Z,26.74
2018-06-10T10:05:41.777Z,26.77
2018-06-10T10:06:41.778Z,26.68
2018-06-10T10:07:41.791Z,26.73
2018-06-10T10:08:41.812Z,26.67
2018-06-10T10:09:41.804Z,26.73
2018-06-10T10:10:41.818Z,26.72
2018-06-10T10:11:41.823Z,26.61
2018-06-10T10:12:41.833Z,26.54
2018-06-10T10:13:41.838Z,26.40
2018-06-10T10:14:41.895Z,26.46
2018-06-10T10:15:41.857Z,26.52
2018-06-10T10:16:41.869Z,26.31
2018-06-10T10:17:41.873Z,26.22
2018-06-10T10:18:41.884Z,26.12
2018-06-10T10:19:41.894Z,26.06
2018-06-10T10:20:41.897Z,25.97
2018-06-10T10:21:41.902Z,26.02
2018-06-10T10:22:41.913Z,25.84
2018-06-10T10:23:41.926Z,25.71
2018-06-10T10:24:41.933Z,25.74
2018-06-10T10:25:41.934Z,25.90
2018-06-10T10:26:41.945Z,26.01
2018-06-10T10:27:41.948Z,26.08
2018-06-10T10:28:41.959Z,26.21
2018-06-10T10:29:41.964Z,26.18
2018-06-10T10:30:41.985Z,26.22
2018-06-10T10:31:41.987Z,26.09
2018-06-10T10:32:41.998Z,26.09
2018-06-10T10:33:42.004Z,26.18
2018-06-10T10:34:42.011Z,26.15
2018-06-10T10:35:42.063Z,26.04
2018-06-10T10:36:42.024Z,26.11
2018-06-10T10:37:42.028Z,26.22
2018-06-10T10:38:42.043Z,26.21
2018-06-10T10:39:42.041Z,26.36
2018-06-10T10:40:42.052Z,26.21
2018-06-10T10:41:42.058Z,26.31
2018-06-10T10:42:42.065Z,26.21
2018-06-10T10:43:42.078Z,26.29
2018-06-10T10:44:42.078Z,26.20
2018-06-10T10:45:42.099Z,26.04
2018-06-10T10:46:42.099Z,25.94
2018-06-10T10:47:42.102Z,25.99
2018-06-10T10:48:42.117Z,26.04
2018-06-10T10:49:42.122Z,26.08
2018-06-10T10:50:42.133Z,26.17
2018-06-10T10:51:42.142Z,26.35
2018-06-10T10:52:42.147Z,26.22
2018-06-10T10:53:42.159Z,26.28
2018-06-10T10:54:42.154Z,26.39
2018-06-10T10:55:42.168Z,26.52
2018-06-10T10:56:42.177Z,26.40
2018-06-10T10:57:42.183Z,26.31
2018-06-10T10:58:42.191Z,26.36
2018-06-10T10:59:42.191Z,26.24
2018-06-10T11:00:42.205Z,26.39
2018-06-10T11:01:42.215Z,26.22
2018-06-10T11:02:42.221Z,26.15
2018-06-10T11:03:42.228Z,26.08
2018-06-10T11:04:42.236Z,26.25
2018-06-10T11:05:42.244Z,26.37
2018-06-10T11:06:42.251Z,26.32
2018-06-10T11:07:42.261Z,26.29
2018-06-10T11:08:42.268Z,26.37
2018-06-10T11:09:42.275Z,26.39
2018-06-10T11:10:42.283Z,26.49
2018-06-10T11:11:42.287Z,26.28
2018-06-10T11:12:42.297Z,26.28
2018-06-10T11:13:42.303Z,26.39
2018-06-10T11:14:42.309Z,26.46
2018-06-10T11:15:42.319Z,26.55
2018-06-10T11:16:42.328Z,26.74
2018-06-10T11:17:42.334Z,26.62
2018-06-10T11:18:42.341Z,26.61
2018-06-10T11:19:42.360Z,26.79
2018-06-10T11:20:42.362Z,26.68
2018-06-10T11:21:42.362Z,26.68
2018-06-10T11:22:42.372Z,26.55
2018-06-10T11:23:42.390Z,26.49
2018-06-10T11:24:42.393Z,26.49
2018-06-10T11:25:42.396Z,26.67
2018-06-10T11:26:42.404Z,26.67
2018-06-10T11:27:42.415Z,26.59
2018-06-10T11:28:42.419Z,26.64
2018-06-10T11:29:42.432Z,26.59
2018-06-10T11:30:42.441Z,26.57
2018-06-10T11:31:42.445Z,26.72
2018-06-10T11:32:42.450Z,26.86
2018-06-10T11:33:42.471Z,26.98
2018-06-10T11:34:42.466Z,26.79
2018-06-10T11:35:42.470Z,26.86
2018-06-10T11:36:42.481Z,26.96
2018-06-10T11:37:42.486Z,26.79
2018-06-10T11:38:42.493Z,26.72
2018-06-10T11:39:42.503Z,26.74
2018-06-10T11:40:42.511Z,26.69
2018-06-10T11:41:42.524Z,26.65
2018-06-10T11:42:42.532Z,26.62
2018-06-10T11:43:42.537Z,26.65
2018-06-10T11:44:42.547Z,26.89
2018-06-10T11:45:42.549Z,26.81
2018-06-10T11:46:42.569Z,26.80
2018-06-10T11:47:42.573Z,26.84
2018-06-10T11:48:42.580Z,27.16
2018-06-10T11:49:42.580Z,27.28
2018-06-10T11:50:42.589Z,27.29
2018-06-10T11:51:42.602Z,27.29
2018-06-10T11:52:42.608Z,27.20
2018-06-10T11:53:42.616Z,27.10
2018-06-10T11:54:42.627Z,27.04
2018-06-10T11:55:42.632Z,27.19
2018-06-10T11:56:42.642Z,27.33
2018-06-10T11:57:42.645Z,27.28
2018-06-10T11:58:42.655Z,27.26
2018-06-10T11:59:42.668Z,27.06
2018-06-10T12:00:42.674Z,27.20
2018-06-10T12:01:42.681Z,27.24
2018-06-10T12:02:42.689Z,27.26
2018-06-10T12:03:42.706Z,27.28
2018-06-10T12:04:42.710Z,27.19
2018-06-10T12:05:42.709Z,27.20
2018-06-10T12:06:42.723Z,27.50
2018-06-10T12:07:42.729Z,27.47
2018-06-10T12:08:42.735Z,27.41
2018-06-10T12:09:42.744Z,27.41
2018-06-10T12:10:42.753Z,27.54
2018-06-10T12:11:42.767Z,27.36
2018-06-10T12:12:42.773Z,27.50
2018-06-10T12:13:42.844Z,27.50
2018-06-10T12:14:42.783Z,27.39
2018-06-10T12:15:42.789Z,27.14
2018-06-10T12:16:42.874Z,26.96
2018-06-10T12:17:42.804Z,27.05
2018-06-10T12:18:42.814Z,27.23
2018-06-10T12:19:42.826Z,27.39
2018-06-10T12:20:42.833Z,27.43
2018-06-10T12:21:42.867Z,27.33
2018-06-10T12:22:42.901Z,27.23
2018-06-10T12:23:42.855Z,27.11
2018-06-10T12:24:42.863Z,27.43
2018-06-10T12:25:42.875Z,27.79
2018-06-10T12:26:42.886Z,27.74
2018-06-10T12:27:42.893Z,27.67
2018-06-10T12:28:42.900Z,27.66
2018-06-10T12:29:42.911Z,27.73
2018-06-10T12:30:42.918Z,27.43
2018-06-10T12:31:42.927Z,27.29
2018-06-10T12:32:42.937Z,27.26
2018-06-10T12:33:42.946Z,27.32
2018-06-10T12:34:42.948Z,27.20
2018-06-10T12:35:42.958Z,27.14
2018-06-10T12:36:42.969Z,27.11
2018-06-10T12:37:42.977Z,27.41
2018-06-10T12:38:42.989Z,27.64
2018-06-10T12:39:42.991Z,27.57
2018-06-10T12:40:43.013Z,27.69
2018-06-10T12:41:43.008Z,27.50
2018-06-10T12:42:43.020Z,27.21
2018-06-10T12:43:43.032Z,27.16
2018-06-10T12:44:43.054Z,27.23
2018-06-10T12:45:43.046Z,27.36
2018-06-10T12:46:43.055Z,27.69
2018-06-10T12:47:43.066Z,27.88
2018-06-10T12:48:43.071Z,27.89
2018-06-10T12:49:43.085Z,27.84
2018-06-10T12:50:43.091Z,27.73
2018-06-10T12:51:43.093Z,27.62
2018-06-10T12:52:43.107Z,27.53
2018-06-10T12:53:43.111Z,27.62
2018-06-10T12:54:43.116Z,27.53
2018-06-10T12:55:43.124Z,27.70
2018-06-10T12:56:43.179Z,27.67
2018-06-10T12:57:43.174Z,27.80
2018-06-10T12:58:43.166Z,27.71
2018-06-10T12:59:43.168Z,27.84
2018-06-10T13:00:43.174Z,27.95
2018-06-10T13:01:43.185Z,28.01
2018-06-10T13:02:43.198Z,27.98
2018-06-10T13:03:43.192Z,27.71
2018-06-10T13:04:43.201Z,27.64
2018-06-10T13:05:43.212Z,27.77
2018-06-10T13:06:43.217Z,27.69
2018-06-10T13:07:43.230Z,27.73
2018-06-10T13:08:43.235Z,28.06
2018-06-10T13:09:43.252Z,28.19
2018-06-10T13:10:43.253Z,28.01
2018-06-10T13:11:43.263Z,27.86